Time;durP1;ratioP1;P1;durP2;ratioP2;P2;SDS_P1;SDS_P2;PMS_P1;PMS_P2;Temp;Humidity;BMP_temperature;BMP_pressure;BME280_temperature;BME280_humidity;BME280_pressure;Samples;Min_cycle;Max_cycle;Signal;HPM_P1;HPM_P2
2022/10/04 00:01:25;;;;;;;12.60;5.00;;;;;;;16.49;100.00;98402.78;6241067;23;20062;-91
2022/10/04 00:04:26;;;;;;;12.95;4.88;;;;;;;17.02;100.00;98396.31;6247336;23;20019;-91
2022/10/04 00:07:02;;;;;;;11.43;4.55;;;;;;;16.72;100.00;98396.59;6087869;23;20023;-92
2022/10/04 00:09:35;;;;;;;10.93;5.00;;;;;;;16.86;100.00;98384.66;6062610;23;20018;-91
2022/10/04 00:12:04;;;;;;;13.32;4.95;;;;;;;16.65;100.00;98391.63;6063001;23;20045;-92
2022/10/04 00:14:34;;;;;;;13.82;5.43;;;;;;;15.86;100.00;98378.81;6086961;23;20006;-92
2022/10/04 00:17:09;;;;;;;13.73;5.57;;;;;;;16.01;100.00;98383.53;6063315;23;20003;-92
2022/10/04 00:19:47;;;;;;;12.85;5.80;;;;;;;15.93;100.00;98388.19;6063220;23;20054;-91
2022/10/04 00:22:16;;;;;;;12.90;6.65;;;;;;;16.24;100.00;98388.84;6063006;23;20014;-91
2022/10/04 00:25:12;;;;;;;13.77;5.75;;;;;;;15.96;100.00;98388.09;6063098;23;20106;-91
2022/10/04 00:27:58;;;;;;;13.70;5.50;;;;;;;16.22;100.00;98396.78;6078742;23;20030;-91
2022/10/04 00:30:24;;;;;;;13.10;5.97;;;;;;;15.79;100.00;98377.31;6043093;23;20040;-91
2022/10/04 00:33:07;;;;;;;16.13;6.28;;;;;;;15.62;100.00;98384.03;6063525;23;20381;-90
2022/10/04 00:35:34;;;;;;;12.88;6.03;;;;;;;15.68;100.00;98380.31;6087921;23;20022;-92
2022/10/04 00:38:05;;;;;;;13.57;6.13;;;;;;;16.43;100.00;98375.84;6063486;23;20089;-90
2022/10/04 00:40:39;;;;;;;12.18;5.63;;;;;;;16.21;100.00;98363.50;6117424;23;20094;-91
2022/10/04 00:43:12;;;;;;;12.35;5.68;;;;;;;16.24;100.00;98365.16;6212335;23;20012;-91
2022/10/04 00:45:45;;;;;;;12.57;6.13;;;;;;;16.49;100.00;98362.41;6241753;23;20004;-91
2022/10/04 00:48:33;;;;;;;14.82;5.85;;;;;;;16.02;100.00;98366.84;6214620;23;20008;-90
2022/10/04 00:51:17;;;;;;;15.00;5.50;;;;;;;15.89;100.00;98348.94;6214930;23;20346;-91
2022/10/04 00:53:46;;;;;;;13.75;5.32;;;;;;;16.18;100.00;98340.78;6211724;23;20533;-90
2022/10/04 00:56:18;;;;;;;13.23;5.88;;;;;;;16.00;100.00;98344.13;6212245;23;20031;-90
2022/10/04 00:59:04;;;;;;;12.88;5.68;;;;;;;15.94;100.00;98344.38;6238950;23;20004;-91
2022/10/04 01:01:34;;;;;;;12.63;5.88;;;;;;;15.92;100.00;98341.81;6212013;23;20003;-90
2022/10/04 01:04:03;;;;;;;13.13;5.90;;;;;;;16.25;100.00;98338.78;6210574;23;20008;-90
2022/10/04 01:06:30;;;;;;;11.55;5.70;;;;;;;16.75;100.00;98334.19;6212129;23;20042;-90
2022/10/04 01:09:05;;;;;;;12.15;6.10;;;;;;;16.37;100.00;98334.81;6236943;23;20087;-91
2022/10/04 01:11:41;;;;;;;14.13;6.32;;;;;;;16.00;100.00;98323.94;6211747;23;20194;-90
2022/10/04 01:14:18;;;;;;;13.38;6.28;;;;;;;16.07;100.00;98318.44;6240089;23;20641;-91
2022/10/04 01:16:44;;;;;;;16.73;7.10;;;;;;;15.91;100.00;98310.28;6238490;23;20019;-91
2022/10/04 01:19:22;;;;;;;13.52;6.70;;;;;;;16.17;100.00;98299.63;6239424;23;20495;-90
2022/10/04 01:22:09;;;;;;;13.90;6.90;;;;;;;16.26;100.00;98289.66;6212417;23;20541;-90
2022/10/04 01:24:40;;;;;;;13.93;6.63;;;;;;;16.13;100.00;98281.38;6238920;23;20050;-89
2022/10/04 01:27:34;;;;;;;14.48;7.40;;;;;;;15.79;100.00;98280.03;6212930;23;20095;-90
2022/10/04 01:30:02;;;;;;;16.08;8.20;;;;;;;16.30;100.00;98278.09;6211513;23;20042;-89
2022/10/04 01:32:30;;;;;;;16.42;8.20;;;;;;;16.94;100.00;98274.59;6237604;23;20024;-90
2022/10/04 01:34:57;;;;;;;16.80;8.98;;;;;;;16.43;100.00;98260.03;6238680;23;20058;-90
2022/10/04 01:37:23;;;;;;;17.08;9.50;;;;;;;16.54;100.00;98247.28;6212693;23;20087;-91
2022/10/04 01:39:48;;;;;;;18.58;9.77;;;;;;;16.19;100.00;98255.69;6239445;23;20066;-90
2022/10/04 01:42:31;;;;;;;18.25;10.05;;;;;;;16.35;100.00;98239.28;6239687;23;20370;-89
2022/10/04 01:45:02;;;;;;;18.48;9.73;;;;;;;16.42;100.00;98245.16;6211825;23;20494;-91
2022/10/04 01:47:40;;;;;;;18.25;9.38;;;;;;;16.41;100.00;98232.91;6237714;23;20010;-90
2022/10/04 01:50:15;;;;;;;18.48;9.20;;;;;;;16.22;100.00;98231.03;6212740;23;20012;-90
2022/10/04 01:52:46;;;;;;;17.35;8.70;;;;;;;16.15;100.00;98243.56;6211708;23;20058;-91
2022/10/04 01:55:18;;;;;;;15.00;7.93;;;;;;;16.08;100.00;98230.75;6238972;23;20003;-91
2022/10/04 01:57:51;;;;;;;15.50;7.18;;;;;;;16.13;100.00;98232.28;6238376;23;20051;-91
2022/10/04 02:03:19;;;;;;;14.23;7.28;;;;;;;16.57;100.00;98226.09;6238361;23;20037;-93
2022/10/04 02:05:59;;;;;;;14.75;7.30;;;;;;;16.75;100.00;98227.09;6209061;23;20020;-93
2022/10/04 02:08:37;;;;;;;13.35;6.85;;;;;;;16.57;100.00;98215.56;6212117;23;20055;-92
2022/10/04 02:11:08;;;;;;;14.98;7.10;;;;;;;16.40;100.00;98203.09;6212344;23;20008;-92
2022/10/04 02:13:37;;;;;;;12.80;6.57;;;;;;;16.65;100.00;98207.34;6240353;23;20027;-92
2022/10/04 02:16:07;;;;;;;12.25;6.50;;;;;;;16.44;100.00;98201.22;6211792;23;20027;-93
2022/10/04 02:18:59;;;;;;;11.50;5.60;;;;;;;16.36;100.00;98199.72;6239985;23;20027;-94
2022/10/04 02:21:34;;;;;;;12.38;5.70;;;;;;;16.44;100.00;98188.06;6213908;23;20019;-91
2022/10/04 02:24:02;;;;;;;12.18;5.43;;;;;;;16.29;100.00;98179.03;6215852;23;20008;-93
2022/10/04 02:26:30;;;;;;;9.98;4.95;;;;;;;16.25;100.00;98183.53;6213875;23;20098;-92
2022/10/04 02:28:56;;;;;;;9.48;4.75;;;;;;;16.68;100.00;98181.72;6215185;23;20143;-93
2022/10/04 02:34:12;;;;;;;11.25;4.97;;;;;;;16.26;100.00;98144.94;6239360;23;20111;-93
2022/10/04 02:36:43;;;;;;;11.57;5.70;;;;;;;16.37;100.00;98158.50;6211935;23;20020;-93
2022/10/04 02:39:16;;;;;;;11.27;5.45;;;;;;;16.10;100.00;98137.66;6214886;23;20142;-92
2022/10/04 02:41:44;;;;;;;13.85;5.68;;;;;;;16.29;100.00;98134.28;6242418;23;20008;-93
2022/10/04 02:44:30;;;;;;;10.85;5.30;;;;;;;16.36;100.00;98125.22;6216563;23;20004;-93
2022/10/04 02:47:28;;;;;;;11.93;5.75;;;;;;;16.45;100.00;98135.34;6217598;23;20000;-93
2022/10/04 02:50:19;;;;;;;11.68;5.38;;;;;;;16.27;100.00;98120.31;6243265;23;20016;-93
2022/10/04 02:52:54;;;;;;;11.02;5.18;;;;;;;16.03;100.00;98117.81;6216832;23;20028;-92
2022/10/04 02:55:51;;;;;;;11.00;4.82;;;;;;;15.97;100.00;98115.44;6217867;23;20011;-93
2022/10/04 02:58:21;;;;;;;11.32;5.45;;;;;;;16.04;100.00;98111.63;6239115;23;20011;-93
2022/10/04 03:01:14;;;;;;;10.93;4.95;;;;;;;16.35;100.00;98105.94;6238067;23;20034;-94
2022/10/04 03:03:49;;;;;;;10.02;4.57;;;;;;;16.19;100.00;98110.16;6236589;23;20004;-93
2022/10/04 03:06:23;;;;;;;9.48;4.35;;;;;;;16.24;100.00;98091.53;6209031;23;20016;-93
2022/10/04 03:08:58;;;;;;;11.50;5.10;;;;;;;16.19;100.00;98104.88;6236069;23;20091;-93
2022/10/04 03:11:35;;;;;;;8.65;4.40;;;;;;;15.94;100.00;98089.28;6211043;23;20016;-93
2022/10/04 03:14:12;;;;;;;8.93;4.20;;;;;;;16.14;100.00;98106.84;6213241;23;20101;-93
2022/10/04 03:16:42;;;;;;;8.57;4.00;;;;;;;16.37;100.00;98084.81;6240609;23;20018;-92
2022/10/04 03:19:12;;;;;;;10.55;4.85;;;;;;;15.88;100.00;98093.03;6213766;23;20460;-92
2022/10/04 03:21:48;;;;;;;9.57;4.00;;;;;;;16.17;100.00;98081.28;6209369;23;20000;-93
2022/10/04 03:24:22;;;;;;;8.68;4.25;;;;;;;16.21;100.00;98100.41;6209836;23;20023;-93
2022/10/04 03:27:01;;;;;;;10.80;4.18;;;;;;;15.87;100.00;98088.69;6237508;23;20050;-93
2022/10/04 03:29:37;;;;;;;9.15;4.10;;;;;;;16.18;100.00;98087.38;6209971;23;20095;-93
2022/10/04 03:32:04;;;;;;;9.43;4.25;;;;;;;16.24;100.00;98086.25;6210148;23;20776;-93
2022/10/04 03:34:44;;;;;;;10.40;4.38;;;;;;;16.52;100.00;98106.97;6210363;23;20008;-92
2022/10/04 03:37:45;;;;;;;11.45;4.75;;;;;;;16.06;100.00;98087.91;6212432;23;20026;-93
2022/10/04 03:40:17;;;;;;;8.70;4.30;;;;;;;16.52;100.00;98101.69;6212630;23;20027;-93
2022/10/04 03:42:46;;;;;;;9.65;4.30;;;;;;;16.36;100.00;98085.72;6213218;23;20011;-93
2022/10/04 03:45:23;;;;;;;10.73;4.30;;;;;;;16.54;100.00;98078.81;6213025;23;20067;-94
2022/10/04 03:47:57;;;;;;;8.82;4.22;;;;;;;16.51;100.00;98079.78;6212039;23;20022;-94
2022/10/04 03:50:34;;;;;;;8.85;3.88;;;;;;;16.34;100.00;98075.28;6212986;23;20008;-93
2022/10/04 03:53:14;;;;;;;11.80;3.97;;;;;;;16.51;100.00;98092.13;6210955;23;20011;-94
2022/10/04 03:55:43;;;;;;;9.20;4.13;;;;;;;16.81;100.00;98095.16;6210869;23;20023;-93
2022/10/04 03:58:15;;;;;;;8.35;3.60;;;;;;;16.74;100.00;98077.91;6212745;23;20004;-93
2022/10/04 04:01:23;;;;;;;8.97;4.03;;;;;;;16.63;100.00;98077.53;6239980;23;20655;-93
2022/10/04 04:04:49;;;;;;;8.95;3.78;;;;;;;16.36;100.00;98081.31;6212153;23;20038;-93
2022/10/04 04:07:27;;;;;;;9.13;3.83;;;;;;;16.35;100.00;98084.00;6086506;23;20847;-92
2022/10/04 04:10:05;;;;;;;9.38;3.60;;;;;;;16.45;100.00;98079.22;6236760;23;20342;-94
2022/10/04 04:12:52;;;;;;;9.30;3.50;;;;;;;16.27;100.00;98075.59;6213068;23;20016;-92
2022/10/04 04:15:18;;;;;;;8.80;3.80;;;;;;;16.54;100.00;98066.50;6212469;23;20004;-92
2022/10/04 04:17:51;;;;;;;9.32;3.90;;;;;;;16.70;100.00;98060.53;6239379;23;20019;-93
2022/10/04 04:20:47;;;;;;;9.43;3.67;;;;;;;16.62;100.00;98068.78;6213509;23;20019;-93
2022/10/04 04:23:33;;;;;;;8.48;3.40;;;;;;;16.68;100.00;98080.81;6213793;23;20525;-94
2022/10/04 04:26:41;;;;;;;8.30;3.58;;;;;;;16.56;100.00;98074.31;6241387;23;20024;-94
2022/10/04 04:29:48;;;;;;;8.98;3.05;;;;;;;16.76;100.00;98078.72;6088956;23;20014;-93
2022/10/04 04:32:30;;;;;;;8.43;3.55;;;;;;;16.85;100.00;98056.34;6087924;23;20480;-93
2022/10/04 04:35:06;;;;;;;8.77;3.42;;;;;;;17.26;100.00;98063.28;6065153;23;20038;-93
2022/10/04 04:38:00;;;;;;;8.13;3.17;;;;;;;16.60;100.00;98048.72;6087832;23;20021;-93
2022/10/04 04:40:26;;;;;;;8.60;3.33;;;;;;;16.78;100.00;98047.03;6090231;23;20077;-93
2022/10/04 04:42:52;;;;;;;7.25;3.05;;;;;;;16.52;100.00;98047.28;6064888;23;20410;-94
2022/10/04 04:45:30;;;;;;;7.30;2.78;;;;;;;16.70;100.00;98047.38;6089092;23;20014;-92
2022/10/04 04:47:57;;;;;;;7.80;2.92;;;;;;;16.68;100.00;98044.81;6064170;23;20061;-93
2022/10/04 04:50:29;;;;;;;7.75;3.10;;;;;;;16.61;100.00;98048.66;6063800;23;20560;-93
2022/10/04 04:53:23;;;;;;;7.60;2.67;;;;;;;16.90;100.00;98038.59;6062290;23;20213;-94
2022/10/04 04:56:05;;;;;;;7.82;2.75;;;;;;;16.20;100.00;98028.53;6088264;23;20512;-93
2022/10/04 04:58:45;;;;;;;7.50;2.88;;;;;;;16.67;100.00;98023.81;6062357;23;20010;-92
2022/10/04 05:01:34;;;;;;;7.93;2.88;;;;;;;16.32;100.00;98016.59;6087517;23;20178;-92
2022/10/04 05:04:12;;;;;;;9.05;3.00;;;;;;;16.19;100.00;98010.19;6086718;23;20065;-91
2022/10/04 05:06:59;;;;;;;8.13;2.97;;;;;;;16.43;100.00;98002.97;6186896;23;20004;-93
2022/10/04 05:09:36;;;;;;;8.75;3.03;;;;;;;16.21;100.00;97992.53;6237789;23;20050;-93
2022/10/04 05:12:22;;;;;;;8.88;2.80;;;;;;;16.52;100.00;97999.03;6238282;23;20042;-92
2022/10/04 05:14:58;;;;;;;9.75;3.15;;;;;;;16.38;100.00;97983.88;6240344;23;20008;-93
2022/10/04 05:17:28;;;;;;;8.52;3.50;;;;;;;16.27;100.00;97989.66;6239206;23;20028;-93
2022/10/04 05:19:59;;;;;;;9.50;4.10;;;;;;;16.16;100.00;97990.13;6239900;23;20004;-92
2022/10/04 05:22:26;;;;;;;10.30;4.00;;;;;;;16.30;100.00;97992.13;6241141;22;20000;-92
2022/10/04 05:24:57;;;;;;;9.57;4.18;;;;;;;16.18;100.00;97993.50;6241162;22;20012;-94
2022/10/04 05:27:37;;;;;;;15.70;4.88;;;;;;;16.24;100.00;98000.28;6239443;23;20063;-93
2022/10/04 05:30:38;;;;;;;10.80;4.57;;;;;;;15.96;100.00;97995.38;6240602;22;20509;-94
2022/10/04 05:33:14;;;;;;;29.65;5.43;;;;;;;16.50;100.00;98000.91;6241954;23;20059;-93
2022/10/04 05:36:12;;;;;;;9.30;3.78;;;;;;;15.82;100.00;97980.19;6242573;22;20046;-94
2022/10/04 05:39:04;;;;;;;9.77;3.90;;;;;;;16.23;100.00;97993.34;6242515;22;20031;-94
2022/10/04 05:41:45;;;;;;;9.68;4.15;;;;;;;15.96;100.00;97967.31;6240771;23;20065;-93
2022/10/04 05:44:26;;;;;;;12.55;4.50;;;;;;;16.15;100.00;97983.13;6240543;22;20012;-93
2022/10/04 05:47:06;;;;;;;9.02;3.88;;;;;;;16.27;100.00;97965.09;6239940;23;20054;-94
2022/10/04 05:49:45;;;;;;;10.15;3.50;;;;;;;16.21;100.00;97955.69;6241342;23;20074;-94
2022/10/04 05:52:32;;;;;;;12.02;3.65;;;;;;;16.04;100.00;97961.72;6240658;23;20008;-95
2022/10/04 05:55:16;;;;;;;8.68;3.65;;;;;;;16.07;100.00;97953.69;6239202;23;20000;-93
2022/10/04 05:58:20;;;;;;;9.55;3.50;;;;;;;16.09;100.00;97956.25;6241221;23;20045;-94
2022/10/04 06:01:10;;;;;;;8.63;3.53;;;;;;;16.03;100.00;97945.09;6240623;23;20012;-92
2022/10/04 06:03:42;;;;;;;9.30;3.42;;;;;;;16.11;100.00;97957.03;6240551;23;20326;-93
2022/10/04 06:06:24;;;;;;;10.27;3.38;;;;;;;15.90;100.00;97935.19;6243548;22;20016;-93
2022/10/04 06:09:30;;;;;;;7.95;3.50;;;;;;;16.01;100.00;97939.03;6242802;22;20077;-92
2022/10/04 06:12:19;;;;;;;8.68;3.63;;;;;;;16.21;100.00;97914.47;6242987;23;20342;-94
2022/10/04 06:15:22;;;;;;;7.60;2.90;;;;;;;16.29;100.00;97916.75;6243371;22;20008;-92
2022/10/04 06:18:28;;;;;;;7.72;2.95;;;;;;;16.03;100.00;97917.91;6242499;23;20015;-94
2022/10/04 06:21:55;;;;;;;9.23;2.90;;;;;;;16.44;100.00;97925.72;6242161;23;20012;-93
2022/10/04 06:24:43;;;;;;;8.82;3.03;;;;;;;16.34;100.00;97920.03;6150697;23;20016;-94
2022/10/04 06:27:39;;;;;;;7.25;2.80;;;;;;;16.48;100.00;97900.13;6126643;23;20037;-93
2022/10/04 06:30:25;;;;;;;8.40;2.78;;;;;;;16.16;100.00;97889.31;6124576;23;20029;-93
2022/10/04 06:33:18;;;;;;;7.65;3.00;;;;;;;16.30;100.00;97900.03;6126018;23;20020;-93
2022/10/04 06:35:53;;;;;;;6.80;2.58;;;;;;;16.17;100.00;97891.00;6125173;23;20064;-94
2022/10/04 06:39:13;;;;;;;9.43;2.67;;;;;;;16.34;100.00;97913.91;6126998;23;20065;-95
2022/10/04 06:42:00;;;;;;;7.88;2.30;;;;;;;16.39;100.00;97904.03;6064084;23;20049;-94
2022/10/04 06:44:35;;;;;;;7.65;2.60;;;;;;;16.42;100.00;97903.88;6063112;23;20010;-95
2022/10/04 06:47:32;;;;;;;7.85;2.60;;;;;;;16.23;100.00;97889.84;6063150;23;20588;-94
2022/10/04 06:50:33;;;;;;;7.95;2.80;;;;;;;16.45;100.00;97895.84;6062350;23;20047;-95
2022/10/04 06:53:25;;;;;;;7.43;2.30;;;;;;;16.11;100.00;97889.50;5977820;23;20327;-94
2022/10/04 06:56:12;;;;;;;9.30;2.60;;;;;;;16.53;100.00;97882.31;5977537;24;20090;-94
2022/10/04 06:59:06;;;;;;;9.38;2.55;;;;;;;16.44;100.00;97872.25;5977570;23;20020;-94
2022/10/04 07:01:49;;;;;;;6.57;2.50;;;;;;;16.46;100.00;97867.75;6033065;23;20047;-93
2022/10/04 07:04:25;;;;;;;7.30;2.60;;;;;;;16.35;100.00;97876.13;6010637;23;20011;-93
2022/10/04 07:10:34;;;;;;;8.10;2.70;;;;;;;16.41;100.00;97872.38;6035970;23;20468;-94
2022/10/04 07:13:08;;;;;;;6.68;2.40;;;;;;;16.17;100.00;97868.19;6035284;23;20004;-94
2022/10/04 07:15:44;;;;;;;8.95;3.50;;;;;;;17.32;100.00;97887.28;6077288;23;20016;-94
2022/10/04 07:18:44;;;;;;;7.78;2.90;;;;;;;17.45;100.00;97868.22;6156615;23;20074;-95
2022/10/04 07:21:15;;;;;;;7.28;2.70;;;;;;;17.25;100.00;97863.97;6038993;23;20037;-94
2022/10/04 07:24:05;;;;;;;7.93;2.80;;;;;;;17.10;100.00;97839.25;6060305;23;20043;-92
2022/10/04 07:26:43;;;;;;;8.70;2.95;;;;;;;17.32;100.00;97845.13;6065211;23;20084;-94
2022/10/04 07:29:22;;;;;;;8.77;2.88;;;;;;;17.25;100.00;97833.19;6126822;23;20002;-93
2022/10/04 07:32:16;;;;;;;9.23;3.08;;;;;;;17.22;100.00;97828.06;6149988;23;20108;-94
2022/10/04 07:34:47;;;;;;;7.88;2.85;;;;;;;17.10;100.00;97824.28;6125249;23;20198;-94
2022/10/04 07:37:13;;;;;;;8.77;3.03;;;;;;;16.81;100.00;97815.16;6126627;23;20116;-95
2022/10/04 07:39:58;;;;;;;8.75;3.20;;;;;;;16.81;100.00;97829.19;6125493;23;20021;-93
2022/10/04 07:42:41;;;;;;;8.93;3.40;;;;;;;16.66;100.00;97827.28;6124660;23;20484;-94
2022/10/04 07:45:10;;;;;;;;;;;;;;;16.92;100.00;97830.47;6125486;23;20005;-94
2022/10/04 07:47:41;;;;;;;8.20;3.28;;;;;;;16.19;100.00;97820.78;6148191;23;19963;-94
2022/10/04 07:50:33;;;;;;;9.30;3.75;;;;;;;16.19;100.00;97826.03;6129004;23;20021;-94
2022/10/04 07:53:16;;;;;;;8.30;2.63;;;;;;;16.40;100.00;97818.06;6125973;23;20475;-95
2022/10/04 07:56:10;;;;;;;9.55;3.10;;;;;;;16.39;100.00;97848.75;6156521;23;20041;-96
2022/10/04 07:59:38;;;;;;;9.15;3.00;;;;;;;16.54;100.00;97828.75;6242124;22;20054;-94
2022/10/04 08:02:35;;;;;;;6.45;2.50;;;;;;;16.65;100.00;97825.59;6120938;23;20029;-95
2022/10/04 08:05:15;;;;;;;6.78;2.50;;;;;;;16.95;100.00;97825.91;6126604;23;20084;-95
2022/10/04 08:08:25;;;;;;;7.93;2.50;;;;;;;16.95;100.00;97844.34;6126219;23;20010;-95
2022/10/04 08:11:11;;;;;;;10.23;2.50;;;;;;;16.76;100.00;97851.41;6063558;23;20014;-94
2022/10/04 08:13:49;;;;;;;8.25;2.63;;;;;;;17.01;100.00;97862.47;6062496;23;20015;-95
2022/10/04 08:16:35;;;;;;;7.07;2.63;;;;;;;16.80;100.00;97858.22;6061759;23;20030;-94
2022/10/04 08:19:26;;;;;;;7.45;2.45;;;;;;;16.95;100.00;97854.00;6062466;23;20014;-94
2022/10/04 08:22:10;;;;;;;6.80;2.20;;;;;;;17.24;100.00;97855.19;6062147;23;20015;-95
2022/10/04 08:24:53;;;;;;;7.60;2.38;;;;;;;17.44;100.00;97842.78;6062746;23;20041;-96
2022/10/04 08:31:11;;;;;;;7.38;1.88;;;;;;;17.72;100.00;97843.03;6061837;23;20050;-95
2022/10/04 08:34:14;;;;;;;4.95;1.55;;;;;;;17.55;100.00;97835.16;6038221;23;20010;-95
2022/10/04 08:36:43;;;;;;;6.07;1.73;;;;;;;17.70;100.00;97825.59;6092261;23;20099;-95
2022/10/04 08:39:48;;;;;;;6.28;1.67;;;;;;;17.65;100.00;97799.47;6096393;23;20100;-94
2022/10/04 08:42:40;;;;;;;8.05;1.95;;;;;;;17.87;100.00;97808.84;6064673;23;20024;-94
2022/10/04 08:45:51;;;;;;;5.22;1.50;;;;;;;17.66;100.00;97795.03;6184902;23;20020;-92
2022/10/04 08:48:42;;;;;;;5.28;1.52;;;;;;;17.62;100.00;97804.94;6242267;23;20000;-95
2022/10/04 08:51:19;;;;;;;6.72;1.70;;;;;;;17.65;100.00;97803.91;6241984;23;20034;-95
2022/10/04 08:54:05;;;;;;;6.00;1.42;;;;;;;17.90;100.00;97788.47;6242276;23;20007;-93
2022/10/04 08:56:56;;;;;;;7.07;1.42;;;;;;;17.88;100.00;97800.91;6241001;23;20016;-94
2022/10/04 08:59:50;;;;;;;6.43;1.52;;;;;;;17.92;100.00;97788.41;6239160;23;20016;-94
2022/10/04 09:03:04;;;;;;;5.50;1.27;;;;;;;17.82;100.00;97788.03;6240957;23;20027;-94
2022/10/04 09:05:49;;;;;;;5.22;1.30;;;;;;;17.74;100.00;97777.03;6240995;23;20415;-95
2022/10/04 09:08:43;;;;;;;4.30;1.30;;;;;;;18.08;100.00;97807.75;6240823;23;20495;-94
2022/10/04 09:11:40;;;;;;;6.97;1.25;;;;;;;17.82;100.00;97790.66;6242105;22;20015;-94
2022/10/04 09:14:57;;;;;;;8.00;1.50;;;;;;;18.02;100.00;97791.38;6242124;23;20000;-95
2022/10/04 09:17:59;;;;;;;5.85;1.50;;;;;;;18.33;100.00;97808.16;6123990;23;20068;-96
2022/10/04 09:20:50;;;;;;;5.30;1.30;;;;;;;18.23;100.00;97807.81;6123547;23;20018;-93
2022/10/04 09:24:00;;;;;;;6.50;1.35;;;;;;;18.72;100.00;97815.63;6124666;23;20031;-96
2022/10/04 09:27:04;;;;;;;4.43;1.20;;;;;;;18.32;100.00;97804.69;6125245;23;20009;-94
2022/10/04 09:29:54;;;;;;;5.70;1.20;;;;;;;18.45;100.00;97822.47;6099132;23;20092;-95
2022/10/04 09:32:28;;;;;;;5.80;1.30;;;;;;;18.75;100.00;97847.13;6147824;23;20206;-95
2022/10/04 09:34:56;;;;;;;4.07;1.13;;;;;;;18.73;100.00;97841.09;6124998;23;20005;-95
2022/10/04 09:37:43;;;;;;;4.85;1.40;;;;;;;19.05;100.00;97861.34;6148436;23;20044;-95
2022/10/04 09:40:33;;;;;;;4.10;1.10;;;;;;;18.81;100.00;97866.22;6121603;23;20431;-93
2022/10/04 09:43:27;;;;;;;5.13;1.20;;;;;;;18.62;100.00;97840.84;6121064;23;20002;-94
2022/10/04 09:46:28;;;;;;;4.72;1.17;;;;;;;18.46;100.00;97854.06;6126261;23;20025;-94
2022/10/04 09:49:02;;;;;;;5.00;1.33;;;;;;;18.96;100.00;97864.53;6126971;23;20001;-93
2022/10/04 09:52:14;;;;;;;4.82;1.10;;;;;;;19.72;100.00;97861.78;6126528;23;20013;-95
2022/10/04 09:55:24;;;;;;;3.45;0.95;;;;;;;18.99;100.00;97849.34;6180181;23;20012;-95
2022/10/04 09:58:28;;;;;;;6.15;1.20;;;;;;;18.77;100.00;97853.19;6180100;23;20022;-95
2022/10/04 10:01:07;;;;;;;4.43;1.10;;;;;;;18.88;100.00;97834.09;6149902;23;20009;-94
2022/10/04 10:04:23;;;;;;;4.03;1.10;;;;;;;18.79;100.00;97860.16;6152981;23;20009;-95
2022/10/04 10:06:53;;;;;;;3.88;0.98;;;;;;;19.28;100.00;97837.03;6154606;23;20005;-94
2022/10/04 10:16:19;;;;;;;6.40;1.10;;;;;;;19.22;100.00;97885.00;6181695;23;20221;-94
2022/10/04 10:19:23;;;;;;;6.28;1.15;;;;;;;19.40;100.00;97879.56;6155703;23;20059;-94
2022/10/04 10:22:12;;;;;;;4.95;1.10;;;;;;;18.84;100.00;97874.81;6038660;23;20097;-94
2022/10/04 10:25:17;;;;;;;5.43;1.25;;;;;;;18.88;100.00;97859.69;6037011;23;20457;-94
2022/10/04 10:28:02;;;;;;;4.85;1.10;;;;;;;19.32;100.00;97869.44;6038226;23;20560;-95
2022/10/04 10:31:07;;;;;;;4.53;1.10;;;;;;;18.51;100.00;97864.34;6038837;23;20015;-94
2022/10/04 10:33:50;;;;;;;5.15;1.25;;;;;;;18.59;100.00;97859.50;6067123;23;20008;-94
2022/10/04 10:36:59;;;;;;;4.20;1.17;;;;;;;18.63;100.00;97871.59;6067299;23;20006;-93
2022/10/04 10:39:29;;;;;;;6.47;1.80;;;;;;;18.64;100.00;97861.91;6091008;23;20368;-95
2022/10/04 10:42:26;;;;;;;7.47;2.00;;;;;;;18.72;100.00;97865.81;6067565;23;20010;-94
2022/10/04 10:45:39;;;;;;;8.88;2.00;;;;;;;18.47;100.00;97878.66;6091677;23;20026;-94
2022/10/04 10:48:45;;;;;;;7.25;2.15;;;;;;;18.45;100.00;97884.03;6067792;23;20093;-94
2022/10/04 10:51:33;;;;;;;8.10;2.00;;;;;;;18.68;100.00;97853.72;6068169;23;20036;-95
2022/10/04 10:54:35;;;;;;;6.15;1.77;;;;;;;18.57;100.00;97859.59;6067732;23;20014;-94
2022/10/04 10:57:29;;;;;;;7.00;2.03;;;;;;;18.75;100.00;97860.34;6111863;23;20030;-93
2022/10/04 11:00:16;;;;;;;5.90;2.05;;;;;;;18.37;100.00;97870.41;6241876;23;20016;-94
2022/10/04 11:03:04;;;;;;;5.72;1.92;;;;;;;18.59;100.00;97863.00;6242474;23;20030;-94
2022/10/04 11:05:48;;;;;;;6.82;1.98;;;;;;;18.76;100.00;97877.91;6243124;23;20015;-94
2022/10/04 11:08:42;;;;;;;8.05;1.90;;;;;;;19.33;100.00;97872.94;6242269;23;20099;-95
2022/10/04 11:11:32;;;;;;;7.85;2.40;;;;;;;18.65;100.00;97867.09;6244720;23;20414;-94
2022/10/04 11:14:21;;;;;;;8.48;2.00;;;;;;;19.08;100.00;97869.94;6243445;23;20012;-94
2022/10/04 11:17:05;;;;;;;6.00;1.95;;;;;;;19.04;100.00;97873.72;6242348;23;20012;-95
2022/10/04 11:19:49;;;;;;;5.90;1.75;;;;;;;18.81;100.00;97874.16;6243439;23;20008;-94
2022/10/04 11:22:49;;;;;;;6.10;1.77;;;;;;;18.90;100.00;97879.78;6243105;23;20008;-95
2022/10/04 11:25:34;;;;;;;7.53;2.00;;;;;;;18.73;100.00;97883.34;6243339;23;20038;-95
2022/10/04 11:28:23;;;;;;;5.97;1.90;;;;;;;18.65;100.00;97880.28;6242810;23;20135;-96
2022/10/04 11:30:57;;;;;;;7.15;1.90;;;;;;;18.81;100.00;97871.50;6241095;23;20008;-96
2022/10/04 11:33:57;;;;;;;6.40;1.98;;;;;;;18.89;100.00;97882.53;6239711;23;20015;-95
2022/10/04 11:36:50;;;;;;;8.57;2.00;;;;;;;18.70;100.00;97862.38;6239876;23;20000;-94
2022/10/04 11:39:58;;;;;;;6.53;1.90;;;;;;;18.62;100.00;97874.31;6242755;23;20781;-93
2022/10/04 11:42:52;;;;;;;6.32;1.73;;;;;;;18.31;100.00;97892.72;6243612;23;20012;-93
2022/10/04 11:45:55;;;;;;;7.53;2.28;;;;;;;18.55;100.00;97868.53;6242936;23;20031;-95
2022/10/04 11:48:35;;;;;;;5.60;1.90;;;;;;;18.25;100.00;97877.22;6244731;22;20070;-94
2022/10/04 11:51:47;;;;;;;7.90;2.35;;;;;;;18.82;100.00;97876.69;6244777;23;20050;-95
2022/10/04 11:54:54;;;;;;;5.90;2.00;;;;;;;19.23;100.00;97893.78;6241036;23;20095;-95
2022/10/04 11:57:44;;;;;;;6.32;1.98;;;;;;;19.41;100.00;97894.50;6241965;23;20087;-95
2022/10/04 12:00:19;;;;;;;6.80;2.10;;;;;;;19.96;100.00;97879.78;6243534;23;20016;-94
2022/10/04 12:03:26;;;;;;;5.95;1.88;;;;;;;19.92;100.00;97887.03;6242873;23;20051;-95
2022/10/04 12:06:24;;;;;;;9.30;2.10;;;;;;;20.30;100.00;97885.59;6243393;23;20004;-95
2022/10/04 12:09:39;;;;;;;6.05;1.92;;;;;;;19.72;100.00;97874.13;6242542;23;20446;-95
2022/10/04 12:12:46;;;;;;;6.78;1.90;;;;;;;20.04;100.00;97860.75;6151883;23;20059;-95
2022/10/04 12:15:33;;;;;;;7.60;2.10;;;;;;;20.09;100.00;97864.81;6147457;23;20017;-95
2022/10/04 12:18:27;;;;;;;5.97;1.73;;;;;;;19.84;100.00;97854.91;6127499;23;20347;-95
2022/10/04 12:21:14;;;;;;;;;;;;;;;20.36;100.00;97879.94;6127625;23;20013;-94
2022/10/04 12:24:07;;;;;;;8.25;1.70;;;;;;;20.16;100.00;97882.97;6151420;23;19908;-96
2022/10/04 12:27:03;;;;;;;7.40;1.75;;;;;;;19.70;100.00;97895.41;6127187;23;20021;-95
2022/10/04 12:29:35;;;;;;;6.15;1.88;;;;;;;20.09;100.00;97904.53;6126953;23;20183;-96
2022/10/04 12:32:18;;;;;;;6.57;1.97;;;;;;;19.58;100.00;97904.06;6127909;23;20013;-94
2022/10/04 12:34:53;;;;;;;6.68;1.90;;;;;;;19.92;100.00;97912.66;6128069;23;20017;-96
2022/10/04 12:37:43;;;;;;;7.95;1.80;;;;;;;19.59;100.00;97919.00;6128163;23;20074;-94
2022/10/04 12:40:08;;;;;;;10.40;1.90;;;;;;;19.35;100.00;97918.66;6128268;23;20072;-95
2022/10/04 12:42:53;;;;;;;7.65;1.80;;;;;;;19.39;100.00;97891.94;6150874;23;20014;-94
2022/10/04 12:45:37;;;;;;;7.95;2.15;;;;;;;19.28;100.00;97894.38;6155416;23;20090;-95
2022/10/04 12:48:48;;;;;;;8.93;2.22;;;;;;;19.29;100.00;97898.72;6244243;23;20054;-95
2022/10/04 12:51:13;;;;;;;5.70;1.70;;;;;;;19.36;100.00;97894.78;6152068;23;20025;-96
2022/10/04 12:53:41;;;;;;;8.43;1.95;;;;;;;19.52;100.00;97884.13;6126774;23;20452;-95
2022/10/04 12:56:47;;;;;;;8.48;1.80;;;;;;;19.28;100.00;97884.63;6127892;23;20137;-95
2022/10/04 12:59:51;;;;;;;6.57;2.10;;;;;;;19.26;100.00;97875.97;6039198;23;20026;-95
2022/10/04 13:02:26;;;;;;;6.72;1.80;;;;;;;19.68;100.00;97880.56;6040528;23;20033;-95
2022/10/04 13:05:13;;;;;;;7.15;2.30;;;;;;;19.74;100.00;97867.81;6039863;23;20090;-95